sensor_id;sensor_type;location;lat;lon;timestamp;P1;durP1;ratioP1;P2;durP2;ratioP2
75772;SDS011;64381;0.000;0.000;2023-02-01T00:01:38;14.67;;;6.73;;
75772;SDS011;64381;0.000;0.000;2023-02-01T00:04:03;13.67;;;6.50;;
75772;SDS011;64381;0.000;0.000;2023-02-01T00:06:29;13.33;;;6.40;;
75772;SDS011;64381;0.000;0.000;2023-02-01T00:08:55;13.85;;;6.32;;
75772;SDS011;64381;0.000;0.000;2023-02-01T00:11:20;14.13;;;6.00;;
75772;SDS011;64381;0.000;0.000;2023-02-01T00:13:47;14.20;;;7.15;;
75772;SDS011;64381;0.000;0.000;2023-02-01T00:16:14;13.13;;;6.85;;
75772;SDS011;64381;0.000;0.000;2023-02-01T00:18:40;12.77;;;6.50;;
75772;SDS011;64381;0.000;0.000;2023-02-01T00:21:06;12.20;;;6.30;;
75772;SDS011;64381;0.000;0.000;2023-02-01T00:23:32;15.90;;;7.03;;
75772;SDS011;64381;0.000;0.000;2023-02-01T00:26:00;13.20;;;6.90;;
75772;SDS011;64381;0.000;0.000;2023-02-01T00:28:26;12.03;;;6.00;;
75772;SDS011;64381;0.000;0.000;2023-02-01T00:30:55;12.77;;;6.90;;
75772;SDS011;64381;0.000;0.000;2023-02-01T00:33:22;11.93;;;6.05;;
75772;SDS011;64381;0.000;0.000;2023-02-01T00:35:47;13.73;;;6.57;;
75772;SDS011;64381;0.000;0.000;2023-02-01T00:38:12;13.07;;;6.20;;
75772;SDS011;64381;0.000;0.000;2023-02-01T00:40:37;14.63;;;6.50;;
75772;SDS011;64381;0.000;0.000;2023-02-01T00:43:03;13.67;;;6.37;;
75772;SDS011;64381;0.000;0.000;2023-02-01T00:45:28;13.37;;;6.43;;
75772;SDS011;64381;0.000;0.000;2023-02-01T00:47:53;11.63;;;5.83;;
75772;SDS011;64381;0.000;0.000;2023-02-01T00:50:18;12.57;;;6.00;;
75772;SDS011;64381;0.000;0.000;2023-02-01T00:52:43;13.30;;;6.30;;
75772;SDS011;64381;0.000;0.000;2023-02-01T00:55:09;12.93;;;6.27;;
75772;SDS011;64381;0.000;0.000;2023-02-01T00:57:34;11.47;;;6.00;;
75772;SDS011;64381;0.000;0.000;2023-02-01T00:59:59;11.90;;;6.10;;
75772;SDS011;64381;0.000;0.000;2023-02-01T01:02:26;10.93;;;5.87;;
75772;SDS011;64381;0.000;0.000;2023-02-01T01:04:51;11.90;;;5.63;;
75772;SDS011;64381;0.000;0.000;2023-02-01T01:07:16;11.63;;;5.63;;
75772;SDS011;64381;0.000;0.000;2023-02-01T01:09:42;10.23;;;5.83;;
75772;SDS011;64381;0.000;0.000;2023-02-01T01:12:07;9.80;;;5.47;;
75772;SDS011;64381;0.000;0.000;2023-02-01T01:14:32;12.53;;;5.93;;
75772;SDS011;64381;0.000;0.000;2023-02-01T01:16:57;11.57;;;5.67;;
75772;SDS011;64381;0.000;0.000;2023-02-01T01:19:23;11.20;;;5.90;;
75772;SDS011;64381;0.000;0.000;2023-02-01T01:21:48;11.13;;;5.88;;
75772;SDS011;64381;0.000;0.000;2023-02-01T01:24:13;10.93;;;5.93;;
75772;SDS011;64381;0.000;0.000;2023-02-01T01:26:39;10.27;;;5.83;;
75772;SDS011;64381;0.000;0.000;2023-02-01T01:29:04;10.77;;;5.53;;
75772;SDS011;64381;0.000;0.000;2023-02-01T01:31:30;11.53;;;5.80;;
75772;SDS011;64381;0.000;0.000;2023-02-01T01:33:56;13.27;;;5.93;;
75772;SDS011;64381;0.000;0.000;2023-02-01T01:36:22;10.63;;;5.23;;
75772;SDS011;64381;0.000;0.000;2023-02-01T01:38:48;10.20;;;5.30;;
75772;SDS011;64381;0.000;0.000;2023-02-01T01:41:18;12.27;;;5.67;;
75772;SDS011;64381;0.000;0.000;2023-02-01T01:43:52;10.52;;;5.72;;
75772;SDS011;64381;0.000;0.000;2023-02-01T01:46:18;11.68;;;5.68;;
75772;SDS011;64381;0.000;0.000;2023-02-01T01:48:46;9.40;;;5.43;;
75772;SDS011;64381;0.000;0.000;2023-02-01T01:51:14;10.40;;;5.30;;
75772;SDS011;64381;0.000;0.000;2023-02-01T01:53:53;11.57;;;5.28;;
75772;SDS011;64381;0.000;0.000;2023-02-01T01:56:24;11.40;;;5.85;;
75772;SDS011;64381;0.000;0.000;2023-02-01T01:58:51;9.95;;;5.20;;
75772;SDS011;64381;0.000;0.000;2023-02-01T02:01:17;9.35;;;5.70;;
75772;SDS011;64381;0.000;0.000;2023-02-01T02:03:43;10.87;;;5.50;;
75772;SDS011;64381;0.000;0.000;2023-02-01T02:06:22;9.47;;;5.43;;
75772;SDS011;64381;0.000;0.000;2023-02-01T02:08:51;10.88;;;5.20;;
75772;SDS011;64381;0.000;0.000;2023-02-01T02:11:16;9.40;;;4.90;;
75772;SDS011;64381;0.000;0.000;2023-02-01T02:13:42;8.60;;;5.13;;
75772;SDS011;64381;0.000;0.000;2023-02-01T02:24:26;8.88;;;5.07;;
75772;SDS011;64381;0.000;0.000;2023-02-01T02:27:00;10.57;;;5.10;;
75772;SDS011;64381;0.000;0.000;2023-02-01T02:34:57;8.50;;;4.83;;
75772;SDS011;64381;0.000;0.000;2023-02-01T02:40:25;8.02;;;4.75;;
75772;SDS011;64381;0.000;0.000;2023-02-01T02:45:30;9.45;;;5.50;;
75772;SDS011;64381;0.000;0.000;2023-02-01T02:48:19;9.50;;;4.90;;
75772;SDS011;64381;0.000;0.000;2023-02-01T02:50:51;8.95;;;4.68;;
75772;SDS011;64381;0.000;0.000;2023-02-01T02:53:39;8.30;;;5.10;;
75772;SDS011;64381;0.000;0.000;2023-02-01T02:56:11;8.65;;;5.10;;
75772;SDS011;64381;0.000;0.000;2023-02-01T02:58:38;10.00;;;5.00;;
75772;SDS011;64381;0.000;0.000;2023-02-01T03:01:03;9.20;;;4.77;;
75772;SDS011;64381;0.000;0.000;2023-02-01T03:03:29;8.97;;;4.70;;
75772;SDS011;64381;0.000;0.000;2023-02-01T03:05:54;8.10;;;4.80;;
75772;SDS011;64381;0.000;0.000;2023-02-01T03:08:21;8.45;;;4.50;;
75772;SDS011;64381;0.000;0.000;2023-02-01T03:16:26;9.38;;;4.57;;
75772;SDS011;64381;0.000;0.000;2023-02-01T03:19:15;9.30;;;4.97;;
75772;SDS011;64381;0.000;0.000;2023-02-01T03:22:11;7.78;;;4.38;;
75772;SDS011;64381;0.000;0.000;2023-02-01T03:24:44;8.45;;;4.93;;
75772;SDS011;64381;0.000;0.000;2023-02-01T03:30:08;7.43;;;4.50;;
75772;SDS011;64381;0.000;0.000;2023-02-01T03:32:42;8.07;;;4.57;;
75772;SDS011;64381;0.000;0.000;2023-02-01T03:35:07;7.72;;;4.50;;
75772;SDS011;64381;0.000;0.000;2023-02-01T03:37:33;8.67;;;4.43;;
75772;SDS011;64381;0.000;0.000;2023-02-01T03:42:38;8.60;;;5.00;;
75772;SDS011;64381;0.000;0.000;2023-02-01T03:45:18;7.35;;;4.43;;
75772;SDS011;64381;0.000;0.000;2023-02-01T03:48:05;8.27;;;4.35;;
75772;SDS011;64381;0.000;0.000;2023-02-01T03:50:31;8.07;;;4.20;;
75772;SDS011;64381;0.000;0.000;2023-02-01T03:55:36;7.50;;;4.33;;
75772;SDS011;64381;0.000;0.000;2023-02-01T04:00:32;7.80;;;4.50;;
75772;SDS011;64381;0.000;0.000;2023-02-01T04:02:57;8.20;;;4.40;;
75772;SDS011;64381;0.000;0.000;2023-02-01T04:05:23;6.90;;;4.00;;
75772;SDS011;64381;0.000;0.000;2023-02-01T04:07:48;8.20;;;4.40;;
75772;SDS011;64381;0.000;0.000;2023-02-01T04:10:14;7.43;;;4.20;;
75772;SDS011;64381;0.000;0.000;2023-02-01T04:12:39;8.27;;;4.25;;
75772;SDS011;64381;0.000;0.000;2023-02-01T04:15:05;7.73;;;4.30;;
75772;SDS011;64381;0.000;0.000;2023-02-01T04:17:31;6.97;;;3.92;;
75772;SDS011;64381;0.000;0.000;2023-02-01T04:19:56;7.10;;;4.17;;
75772;SDS011;64381;0.000;0.000;2023-02-01T04:22:21;7.20;;;4.03;;
75772;SDS011;64381;0.000;0.000;2023-02-01T04:24:47;6.93;;;4.00;;
75772;SDS011;64381;0.000;0.000;2023-02-01T04:27:12;7.67;;;4.30;;
75772;SDS011;64381;0.000;0.000;2023-02-01T04:29:37;7.40;;;3.90;;
75772;SDS011;64381;0.000;0.000;2023-02-01T04:32:03;6.10;;;3.73;;
75772;SDS011;64381;0.000;0.000;2023-02-01T04:34:28;6.97;;;4.00;;
75772;SDS011;64381;0.000;0.000;2023-02-01T04:36:53;7.13;;;4.10;;
75772;SDS011;64381;0.000;0.000;2023-02-01T04:39:18;6.40;;;4.00;;
75772;SDS011;64381;0.000;0.000;2023-02-01T04:41:44;7.17;;;4.07;;
75772;SDS011;64381;0.000;0.000;2023-02-01T04:44:13;6.60;;;3.87;;
75772;SDS011;64381;0.000;0.000;2023-02-01T04:46:40;7.20;;;4.05;;
75772;SDS011;64381;0.000;0.000;2023-02-01T04:49:05;7.37;;;3.90;;
75772;SDS011;64381;0.000;0.000;2023-02-01T04:51:30;5.93;;;3.77;;
75772;SDS011;64381;0.000;0.000;2023-02-01T04:53:56;7.77;;;3.93;;
75772;SDS011;64381;0.000;0.000;2023-02-01T04:56:21;6.40;;;3.70;;
75772;SDS011;64381;0.000;0.000;2023-02-01T04:58:46;7.30;;;3.97;;
75772;SDS011;64381;0.000;0.000;2023-02-01T05:01:12;7.53;;;3.80;;
75772;SDS011;64381;0.000;0.000;2023-02-01T05:03:37;5.87;;;3.60;;
75772;SDS011;64381;0.000;0.000;2023-02-01T05:06:02;6.20;;;3.80;;
75772;SDS011;64381;0.000;0.000;2023-02-01T05:08:27;6.70;;;3.70;;
75772;SDS011;64381;0.000;0.000;2023-02-01T05:10:53;6.27;;;3.80;;
75772;SDS011;64381;0.000;0.000;2023-02-01T05:13:18;7.20;;;4.20;;
75772;SDS011;64381;0.000;0.000;2023-02-01T05:15:43;6.70;;;4.18;;
75772;SDS011;64381;0.000;0.000;2023-02-01T05:18:09;6.73;;;4.37;;
75772;SDS011;64381;0.000;0.000;2023-02-01T05:20:34;7.27;;;4.00;;
75772;SDS011;64381;0.000;0.000;2023-02-01T05:22:59;6.13;;;3.70;;
75772;SDS011;64381;0.000;0.000;2023-02-01T05:25:24;7.13;;;3.83;;
75772;SDS011;64381;0.000;0.000;2023-02-01T05:27:49;6.23;;;3.67;;
75772;SDS011;64381;0.000;0.000;2023-02-01T05:30:15;7.33;;;3.90;;
75772;SDS011;64381;0.000;0.000;2023-02-01T05:32:40;6.40;;;3.70;;
75772;SDS011;64381;0.000;0.000;2023-02-01T05:35:06;6.43;;;3.80;;
75772;SDS011;64381;0.000;0.000;2023-02-01T05:37:31;6.72;;;3.80;;
75772;SDS011;64381;0.000;0.000;2023-02-01T05:39:57;7.00;;;4.00;;
75772;SDS011;64381;0.000;0.000;2023-02-01T05:42:22;5.90;;;3.60;;
75772;SDS011;64381;0.000;0.000;2023-02-01T05:44:47;5.67;;;3.50;;
75772;SDS011;64381;0.000;0.000;2023-02-01T05:47:12;6.17;;;3.67;;
75772;SDS011;64381;0.000;0.000;2023-02-01T05:49:37;6.50;;;3.70;;
75772;SDS011;64381;0.000;0.000;2023-02-01T05:52:03;6.23;;;3.60;;
75772;SDS011;64381;0.000;0.000;2023-02-01T05:54:28;6.53;;;3.63;;
75772;SDS011;64381;0.000;0.000;2023-02-01T05:56:53;6.67;;;3.60;;
75772;SDS011;64381;0.000;0.000;2023-02-01T05:59:19;7.43;;;3.73;;
75772;SDS011;64381;0.000;0.000;2023-02-01T06:01:44;6.57;;;3.60;;
75772;SDS011;64381;0.000;0.000;2023-02-01T06:04:09;6.03;;;3.60;;
75772;SDS011;64381;0.000;0.000;2023-02-01T06:06:34;5.87;;;3.33;;
75772;SDS011;64381;0.000;0.000;2023-02-01T06:09:00;6.60;;;3.70;;
75772;SDS011;64381;0.000;0.000;2023-02-01T06:11:25;6.28;;;3.60;;
75772;SDS011;64381;0.000;0.000;2023-02-01T06:13:51;6.03;;;3.60;;
75772;SDS011;64381;0.000;0.000;2023-02-01T06:16:16;6.77;;;3.70;;
75772;SDS011;64381;0.000;0.000;2023-02-01T06:18:42;5.38;;;3.38;;
75772;SDS011;64381;0.000;0.000;2023-02-01T06:21:07;5.73;;;3.60;;
75772;SDS011;64381;0.000;0.000;2023-02-01T06:23:33;6.77;;;3.50;;
75772;SDS011;64381;0.000;0.000;2023-02-01T06:25:59;6.30;;;3.50;;
75772;SDS011;64381;0.000;0.000;2023-02-01T06:28:26;6.95;;;4.05;;
75772;SDS011;64381;0.000;0.000;2023-02-01T06:30:52;6.90;;;3.40;;
75772;SDS011;64381;0.000;0.000;2023-02-01T06:33:17;6.20;;;3.40;;
75772;SDS011;64381;0.000;0.000;2023-02-01T06:35:43;5.50;;;3.27;;
75772;SDS011;64381;0.000;0.000;2023-02-01T06:38:08;6.50;;;3.78;;
75772;SDS011;64381;0.000;0.000;2023-02-01T06:40:33;6.60;;;3.47;;
75772;SDS011;64381;0.000;0.000;2023-02-01T06:42:59;5.87;;;3.10;;
75772;SDS011;64381;0.000;0.000;2023-02-01T06:45:24;7.20;;;3.37;;
75772;SDS011;64381;0.000;0.000;2023-02-01T06:47:49;6.47;;;3.57;;
75772;SDS011;64381;0.000;0.000;2023-02-01T06:50:15;5.97;;;3.50;;
75772;SDS011;64381;0.000;0.000;2023-02-01T06:52:40;5.93;;;3.60;;
75772;SDS011;64381;0.000;0.000;2023-02-01T06:55:05;5.30;;;3.10;;
75772;SDS011;64381;0.000;0.000;2023-02-01T06:57:31;6.60;;;3.47;;
75772;SDS011;64381;0.000;0.000;2023-02-01T06:59:56;5.20;;;3.13;;
75772;SDS011;64381;0.000;0.000;2023-02-01T07:02:21;7.30;;;3.60;;
75772;SDS011;64381;0.000;0.000;2023-02-01T07:04:47;6.90;;;3.20;;
75772;SDS011;64381;0.000;0.000;2023-02-01T07:07:12;6.93;;;3.37;;
75772;SDS011;64381;0.000;0.000;2023-02-01T07:09:37;5.80;;;3.03;;
75772;SDS011;64381;0.000;0.000;2023-02-01T07:12:02;12.03;;;3.80;;
75772;SDS011;64381;0.000;0.000;2023-02-01T07:14:28;7.95;;;3.40;;
75772;SDS011;64381;0.000;0.000;2023-02-01T07:16:53;4.60;;;3.00;;
75772;SDS011;64381;0.000;0.000;2023-02-01T07:19:18;5.43;;;2.93;;
75772;SDS011;64381;0.000;0.000;2023-02-01T07:21:43;6.90;;;3.10;;
75772;SDS011;64381;0.000;0.000;2023-02-01T07:24:08;6.37;;;2.67;;
75772;SDS011;64381;0.000;0.000;2023-02-01T07:26:34;6.13;;;2.63;;
75772;SDS011;64381;0.000;0.000;2023-02-01T07:28:59;11.93;;;2.97;;
75772;SDS011;64381;0.000;0.000;2023-02-01T07:31:24;10.10;;;3.40;;
75772;SDS011;64381;0.000;0.000;2023-02-01T07:33:49;12.07;;;3.00;;
75772;SDS011;64381;0.000;0.000;2023-02-01T07:36:16;8.13;;;2.77;;
75772;SDS011;64381;0.000;0.000;2023-02-01T07:38:41;6.75;;;2.70;;
75772;SDS011;64381;0.000;0.000;2023-02-01T07:41:07;8.50;;;2.72;;
75772;SDS011;64381;0.000;0.000;2023-02-01T07:43:33;8.40;;;3.47;;
75772;SDS011;64381;0.000;0.000;2023-02-01T07:45:59;5.05;;;2.40;;
75772;SDS011;64381;0.000;0.000;2023-02-01T07:48:25;7.93;;;2.47;;
75772;SDS011;64381;0.000;0.000;2023-02-01T07:51:01;4.73;;;2.40;;
75772;SDS011;64381;0.000;0.000;2023-02-01T07:53:28;7.45;;;2.20;;
75772;SDS011;64381;0.000;0.000;2023-02-01T07:55:55;7.03;;;2.00;;
75772;SDS011;64381;0.000;0.000;2023-02-01T07:58:20;5.33;;;2.20;;
75772;SDS011;64381;0.000;0.000;2023-02-01T08:00:45;5.13;;;2.40;;
75772;SDS011;64381;0.000;0.000;2023-02-01T08:03:10;6.90;;;2.00;;
75772;SDS011;64381;0.000;0.000;2023-02-01T08:05:36;5.60;;;2.40;;
75772;SDS011;64381;0.000;0.000;2023-02-01T08:08:01;3.87;;;1.87;;
75772;SDS011;64381;0.000;0.000;2023-02-01T08:10:26;5.40;;;2.10;;
75772;SDS011;64381;0.000;0.000;2023-02-01T08:12:51;4.33;;;1.77;;
75772;SDS011;64381;0.000;0.000;2023-02-01T08:15:17;5.10;;;2.10;;
75772;SDS011;64381;0.000;0.000;2023-02-01T08:17:49;4.93;;;1.88;;
75772;SDS011;64381;0.000;0.000;2023-02-01T08:20:15;4.65;;;1.77;;
75772;SDS011;64381;0.000;0.000;2023-02-01T08:22:41;3.77;;;1.70;;
75772;SDS011;64381;0.000;0.000;2023-02-01T08:25:07;4.03;;;1.90;;
75772;SDS011;64381;0.000;0.000;2023-02-01T08:27:33;3.60;;;1.60;;
75772;SDS011;64381;0.000;0.000;2023-02-01T08:29:59;3.40;;;1.50;;
75772;SDS011;64381;0.000;0.000;2023-02-01T08:32:24;3.63;;;1.73;;
75772;SDS011;64381;0.000;0.000;2023-02-01T08:34:49;3.50;;;1.70;;
75772;SDS011;64381;0.000;0.000;2023-02-01T08:37:15;4.40;;;1.73;;
75772;SDS011;64381;0.000;0.000;2023-02-01T08:39:40;3.07;;;1.60;;
75772;SDS011;64381;0.000;0.000;2023-02-01T08:42:05;4.00;;;1.70;;
75772;SDS011;64381;0.000;0.000;2023-02-01T08:44:30;3.47;;;1.57;;
75772;SDS011;64381;0.000;0.000;2023-02-01T08:46:56;3.30;;;1.60;;
75772;SDS011;64381;0.000;0.000;2023-02-01T08:49:21;3.70;;;1.60;;
75772;SDS011;64381;0.000;0.000;2023-02-01T08:51:46;3.57;;;1.83;;
75772;SDS011;64381;0.000;0.000;2023-02-01T08:54:11;4.77;;;1.77;;
75772;SDS011;64381;0.000;0.000;2023-02-01T08:56:37;3.80;;;1.60;;
75772;SDS011;64381;0.000;0.000;2023-02-01T08:59:02;3.73;;;1.60;;
75772;SDS011;64381;0.000;0.000;2023-02-01T09:01:27;2.90;;;1.50;;
75772;SDS011;64381;0.000;0.000;2023-02-01T09:03:52;3.40;;;1.57;;
75772;SDS011;64381;0.000;0.000;2023-02-01T09:06:17;3.63;;;1.60;;
75772;SDS011;64381;0.000;0.000;2023-02-01T09:08:43;3.10;;;1.50;;
75772;SDS011;64381;0.000;0.000;2023-02-01T09:11:12;3.97;;;1.83;;
75772;SDS011;64381;0.000;0.000;2023-02-01T09:13:43;3.47;;;1.65;;
75772;SDS011;64381;0.000;0.000;2023-02-01T09:16:09;3.63;;;1.70;;
75772;SDS011;64381;0.000;0.000;2023-02-01T09:18:34;3.23;;;1.47;;
75772;SDS011;64381;0.000;0.000;2023-02-01T09:21:03;3.07;;;1.60;;
75772;SDS011;64381;0.000;0.000;2023-02-01T09:23:29;3.67;;;1.60;;
75772;SDS011;64381;0.000;0.000;2023-02-01T09:25:58;3.13;;;1.50;;
75772;SDS011;64381;0.000;0.000;2023-02-01T09:28:24;3.45;;;1.80;;
75772;SDS011;64381;0.000;0.000;2023-02-01T09:30:49;3.43;;;1.63;;
75772;SDS011;64381;0.000;0.000;2023-02-01T09:33:19;3.38;;;1.60;;
75772;SDS011;64381;0.000;0.000;2023-02-01T09:35:44;3.77;;;1.50;;
75772;SDS011;64381;0.000;0.000;2023-02-01T09:38:10;3.47;;;1.47;;
75772;SDS011;64381;0.000;0.000;2023-02-01T09:40:35;3.43;;;1.67;;
75772;SDS011;64381;0.000;0.000;2023-02-01T09:43:11;3.40;;;1.53;;
75772;SDS011;64381;0.000;0.000;2023-02-01T09:46:20;3.80;;;1.63;;
75772;SDS011;64381;0.000;0.000;2023-02-01T09:48:48;3.20;;;1.60;;
75772;SDS011;64381;0.000;0.000;2023-02-01T09:51:20;2.95;;;1.30;;
75772;SDS011;64381;0.000;0.000;2023-02-01T09:53:58;3.10;;;1.50;;
75772;SDS011;64381;0.000;0.000;2023-02-01T09:56:24;3.55;;;1.60;;
75772;SDS011;64381;0.000;0.000;2023-02-01T10:01:59;3.22;;;1.50;;
75772;SDS011;64381;0.000;0.000;2023-02-01T10:04:26;3.20;;;1.42;;
75772;SDS011;64381;0.000;0.000;2023-02-01T10:28:46;3.10;;;1.40;;
75772;SDS011;64381;0.000;0.000;2023-02-01T10:31:15;2.97;;;1.50;;
75772;SDS011;64381;0.000;0.000;2023-02-01T10:33:42;3.50;;;1.48;;
75772;SDS011;64381;0.000;0.000;2023-02-01T10:38:46;3.77;;;1.47;;
75772;SDS011;64381;0.000;0.000;2023-02-01T10:41:15;3.35;;;1.58;;
75772;SDS011;64381;0.000;0.000;2023-02-01T10:43:48;2.95;;;1.40;;
75772;SDS011;64381;0.000;0.000;2023-02-01T10:46:18;3.40;;;1.30;;
75772;SDS011;64381;0.000;0.000;2023-02-01T10:48:43;3.20;;;1.50;;
75772;SDS011;64381;0.000;0.000;2023-02-01T10:51:16;3.33;;;1.50;;
75772;SDS011;64381;0.000;0.000;2023-02-01T10:54:00;4.07;;;1.50;;
75772;SDS011;64381;0.000;0.000;2023-02-01T10:56:28;3.10;;;1.50;;
75772;SDS011;64381;0.000;0.000;2023-02-01T10:59:04;3.60;;;1.40;;
75772;SDS011;64381;0.000;0.000;2023-02-01T11:01:31;2.85;;;1.40;;
75772;SDS011;64381;0.000;0.000;2023-02-01T11:04:00;3.30;;;1.52;;
75772;SDS011;64381;0.000;0.000;2023-02-01T11:06:40;3.23;;;1.40;;
75772;SDS011;64381;0.000;0.000;2023-02-01T11:11:34;4.53;;;1.50;;
75772;SDS011;64381;0.000;0.000;2023-02-01T11:14:20;2.90;;;1.42;;
75772;SDS011;64381;0.000;0.000;2023-02-01T11:19:43;2.97;;;1.40;;
75772;SDS011;64381;0.000;0.000;2023-02-01T11:22:10;3.10;;;1.40;;
75772;SDS011;64381;0.000;0.000;2023-02-01T11:24:38;2.97;;;1.42;;
75772;SDS011;64381;0.000;0.000;2023-02-01T11:27:06;2.95;;;1.50;;
75772;SDS011;64381;0.000;0.000;2023-02-01T11:29:40;3.22;;;1.40;;
75772;SDS011;64381;0.000;0.000;2023-02-01T11:32:08;3.15;;;1.60;;
75772;SDS011;64381;0.000;0.000;2023-02-01T11:34:54;4.10;;;1.50;;
75772;SDS011;64381;0.000;0.000;2023-02-01T11:37:27;3.92;;;1.50;;
75772;SDS011;64381;0.000;0.000;2023-02-01T11:39:56;3.25;;;1.52;;
75772;SDS011;64381;0.000;0.000;2023-02-01T11:42:23;3.65;;;1.70;;
75772;SDS011;64381;0.000;0.000;2023-02-01T11:44:49;3.70;;;1.60;;
75772;SDS011;64381;0.000;0.000;2023-02-01T11:47:18;3.13;;;1.50;;
75772;SDS011;64381;0.000;0.000;2023-02-01T11:49:44;3.38;;;1.70;;
75772;SDS011;64381;0.000;0.000;2023-02-01T11:52:18;3.57;;;1.70;;
75772;SDS011;64381;0.000;0.000;2023-02-01T12:06:35;4.13;;;1.70;;
75772;SDS011;64381;0.000;0.000;2023-02-01T12:18:10;3.60;;;1.73;;
75772;SDS011;64381;0.000;0.000;2023-02-01T12:37:00;4.22;;;1.90;;
75772;SDS011;64381;0.000;0.000;2023-02-01T12:39:39;3.92;;;1.80;;
75772;SDS011;64381;0.000;0.000;2023-02-01T12:44:56;4.55;;;1.88;;
75772;SDS011;64381;0.000;0.000;2023-02-01T12:47:39;3.28;;;1.70;;
75772;SDS011;64381;0.000;0.000;2023-02-01T12:50:14;4.63;;;1.75;;
75772;SDS011;64381;0.000;0.000;2023-02-01T12:52:49;3.50;;;1.88;;
75772;SDS011;64381;0.000;0.000;2023-02-01T12:58:17;4.60;;;2.00;;
75772;SDS011;64381;0.000;0.000;2023-02-01T13:00:48;4.00;;;1.98;;
75772;SDS011;64381;0.000;0.000;2023-02-01T13:06:37;3.67;;;2.00;;
75772;SDS011;64381;0.000;0.000;2023-02-01T13:11:47;5.38;;;2.00;;
75772;SDS011;64381;0.000;0.000;2023-02-01T13:17:02;3.95;;;1.60;;
75772;SDS011;64381;0.000;0.000;2023-02-01T13:19:50;3.88;;;1.95;;
75772;SDS011;64381;0.000;0.000;2023-02-01T13:22:21;4.00;;;1.83;;
75772;SDS011;64381;0.000;0.000;2023-02-01T13:25:00;3.30;;;1.60;;
75772;SDS011;64381;0.000;0.000;2023-02-01T13:27:29;4.50;;;2.00;;
75772;SDS011;64381;0.000;0.000;2023-02-01T13:43:38;3.65;;;1.98;;
75772;SDS011;64381;0.000;0.000;2023-02-01T13:46:06;3.10;;;1.80;;
75772;SDS011;64381;0.000;0.000;2023-02-01T13:48:41;4.03;;;1.63;;
75772;SDS011;64381;0.000;0.000;2023-02-01T13:51:12;4.97;;;1.90;;
75772;SDS011;64381;0.000;0.000;2023-02-01T13:53:38;3.92;;;1.90;;
75772;SDS011;64381;0.000;0.000;2023-02-01T13:56:15;4.20;;;1.80;;
75772;SDS011;64381;0.000;0.000;2023-02-01T13:58:43;4.90;;;1.98;;
75772;SDS011;64381;0.000;0.000;2023-02-01T14:03:47;3.92;;;1.88;;
75772;SDS011;64381;0.000;0.000;2023-02-01T14:16:38;3.97;;;1.63;;
75772;SDS011;64381;0.000;0.000;2023-02-01T14:19:07;3.55;;;1.70;;
75772;SDS011;64381;0.000;0.000;2023-02-01T14:21:35;3.92;;;1.88;;
75772;SDS011;64381;0.000;0.000;2023-02-01T14:24:16;3.20;;;1.55;;
75772;SDS011;64381;0.000;0.000;2023-02-01T14:26:52;3.50;;;1.70;;
75772;SDS011;64381;0.000;0.000;2023-02-01T14:37:23;3.03;;;1.60;;
75772;SDS011;64381;0.000;0.000;2023-02-01T14:42:20;3.70;;;1.67;;
75772;SDS011;64381;0.000;0.000;2023-02-01T14:47:42;3.20;;;1.70;;
75772;SDS011;64381;0.000;0.000;2023-02-01T14:55:38;4.10;;;1.98;;
75772;SDS011;64381;0.000;0.000;2023-02-01T15:00:57;3.13;;;1.40;;
75772;SDS011;64381;0.000;0.000;2023-02-01T15:03:33;4.67;;;1.60;;
75772;SDS011;64381;0.000;0.000;2023-02-01T15:06:23;3.45;;;1.67;;
75772;SDS011;64381;0.000;0.000;2023-02-01T15:14:25;3.40;;;1.70;;
75772;SDS011;64381;0.000;0.000;2023-02-01T15:16:51;4.77;;;2.00;;
75772;SDS011;64381;0.000;0.000;2023-02-01T15:19:16;4.17;;;1.73;;
75772;SDS011;64381;0.000;0.000;2023-02-01T15:21:43;3.30;;;1.50;;
75772;SDS011;64381;0.000;0.000;2023-02-01T15:24:10;3.25;;;1.50;;
75772;SDS011;64381;0.000;0.000;2023-02-01T15:26:37;3.90;;;1.80;;
75772;SDS011;64381;0.000;0.000;2023-02-01T15:29:02;3.80;;;1.70;;
75772;SDS011;64381;0.000;0.000;2023-02-01T15:31:41;4.33;;;2.03;;
75772;SDS011;64381;0.000;0.000;2023-02-01T15:34:10;5.10;;;2.10;;
75772;SDS011;64381;0.000;0.000;2023-02-01T15:36:36;3.70;;;1.70;;
75772;SDS011;64381;0.000;0.000;2023-02-01T15:41:40;4.10;;;1.35;;
75772;SDS011;64381;0.000;0.000;2023-02-01T15:44:14;3.15;;;1.50;;
75772;SDS011;64381;0.000;0.000;2023-02-01T15:46:45;3.80;;;1.50;;
75772;SDS011;64381;0.000;0.000;2023-02-01T15:49:29;4.38;;;1.58;;
75772;SDS011;64381;0.000;0.000;2023-02-01T15:52:00;3.60;;;1.60;;
75772;SDS011;64381;0.000;0.000;2023-02-01T15:56:54;3.78;;;1.70;;
75772;SDS011;64381;0.000;0.000;2023-02-01T15:59:22;3.65;;;1.90;;
75772;SDS011;64381;0.000;0.000;2023-02-01T16:01:49;4.18;;;2.00;;
75772;SDS011;64381;0.000;0.000;2023-02-01T16:06:48;3.97;;;1.95;;
75772;SDS011;64381;0.000;0.000;2023-02-01T16:09:37;3.70;;;1.70;;
75772;SDS011;64381;0.000;0.000;2023-02-01T16:12:20;4.38;;;1.88;;
75772;SDS011;64381;0.000;0.000;2023-02-01T16:15:07;4.28;;;1.60;;
75772;SDS011;64381;0.000;0.000;2023-02-01T16:17:33;4.07;;;1.77;;
75772;SDS011;64381;0.000;0.000;2023-02-01T16:19:58;4.33;;;1.77;;
75772;SDS011;64381;0.000;0.000;2023-02-01T16:22:23;3.30;;;1.60;;
75772;SDS011;64381;0.000;0.000;2023-02-01T16:24:49;4.15;;;1.73;;
75772;SDS011;64381;0.000;0.000;2023-02-01T16:27:15;4.53;;;1.80;;
75772;SDS011;64381;0.000;0.000;2023-02-01T16:29:40;3.93;;;1.80;;
75772;SDS011;64381;0.000;0.000;2023-02-01T16:32:05;2.87;;;1.50;;
75772;SDS011;64381;0.000;0.000;2023-02-01T16:34:31;4.50;;;1.60;;
75772;SDS011;64381;0.000;0.000;2023-02-01T16:36:56;5.10;;;1.80;;
75772;SDS011;64381;0.000;0.000;2023-02-01T16:39:22;4.07;;;1.90;;
75772;SDS011;64381;0.000;0.000;2023-02-01T16:41:48;4.15;;;1.58;;
75772;SDS011;64381;0.000;0.000;2023-02-01T16:44:14;4.27;;;1.80;;
75772;SDS011;64381;0.000;0.000;2023-02-01T16:46:40;3.87;;;1.63;;
75772;SDS011;64381;0.000;0.000;2023-02-01T16:49:08;3.90;;;1.90;;
75772;SDS011;64381;0.000;0.000;2023-02-01T16:51:43;4.05;;;1.83;;
75772;SDS011;64381;0.000;0.000;2023-02-01T16:54:09;3.97;;;1.63;;
75772;SDS011;64381;0.000;0.000;2023-02-01T16:56:35;4.53;;;1.70;;
75772;SDS011;64381;0.000;0.000;2023-02-01T16:59:00;4.70;;;1.70;;
75772;SDS011;64381;0.000;0.000;2023-02-01T17:01:26;3.83;;;1.60;;
75772;SDS011;64381;0.000;0.000;2023-02-01T17:03:52;3.90;;;1.53;;
75772;SDS011;64381;0.000;0.000;2023-02-01T17:06:18;4.10;;;1.63;;
75772;SDS011;64381;0.000;0.000;2023-02-01T17:08:47;3.80;;;1.70;;
75772;SDS011;64381;0.000;0.000;2023-02-01T17:11:16;3.85;;;1.80;;
75772;SDS011;64381;0.000;0.000;2023-02-01T17:13:41;4.87;;;1.80;;
75772;SDS011;64381;0.000;0.000;2023-02-01T17:19:00;4.47;;;1.92;;
75772;SDS011;64381;0.000;0.000;2023-02-01T17:21:29;4.23;;;1.70;;
75772;SDS011;64381;0.000;0.000;2023-02-01T17:24:05;5.00;;;1.60;;
75772;SDS011;64381;0.000;0.000;2023-02-01T17:26:31;4.77;;;1.80;;
75772;SDS011;64381;0.000;0.000;2023-02-01T17:28:56;4.50;;;1.90;;
75772;SDS011;64381;0.000;0.000;2023-02-01T17:31:22;3.60;;;1.87;;
75772;SDS011;64381;0.000;0.000;2023-02-01T17:33:47;3.20;;;1.88;;
75772;SDS011;64381;0.000;0.000;2023-02-01T17:36:14;4.57;;;1.90;;
75772;SDS011;64381;0.000;0.000;2023-02-01T17:38:40;5.35;;;2.10;;
75772;SDS011;64381;0.000;0.000;2023-02-01T17:41:09;5.87;;;2.13;;
75772;SDS011;64381;0.000;0.000;2023-02-01T17:43:35;4.82;;;1.92;;
75772;SDS011;64381;0.000;0.000;2023-02-01T17:46:05;4.17;;;1.80;;
75772;SDS011;64381;0.000;0.000;2023-02-01T17:48:30;4.53;;;2.20;;
75772;SDS011;64381;0.000;0.000;2023-02-01T17:50:56;5.07;;;1.80;;
75772;SDS011;64381;0.000;0.000;2023-02-01T17:53:21;4.00;;;2.10;;
75772;SDS011;64381;0.000;0.000;2023-02-01T17:55:47;5.00;;;2.13;;
75772;SDS011;64381;0.000;0.000;2023-02-01T17:58:13;4.03;;;2.00;;
75772;SDS011;64381;0.000;0.000;2023-02-01T18:00:40;4.60;;;2.00;;
75772;SDS011;64381;0.000;0.000;2023-02-01T18:03:06;5.20;;;2.10;;
75772;SDS011;64381;0.000;0.000;2023-02-01T18:05:38;4.15;;;2.00;;
75772;SDS011;64381;0.000;0.000;2023-02-01T18:08:05;5.75;;;2.00;;
75772;SDS011;64381;0.000;0.000;2023-02-01T18:10:31;4.70;;;2.10;;